OOCL Europe — VRBX7 — position and weather

sailwx.info

Track history (hours):
 
Tides and Currents Weather Stations Pressure Air Temp Water Temp Dewpoint Dewpoint Depression Visibility Wind Speed Wind Dir Waves Ship Positions

OOCL Europe

Last reported at 2017-Oct-16 15:25 UTC. Time now 2017-Oct-17 20:34 UTC.
Position N 49°40' W 004°06'.

Length 323 m; draft 12.6 m.

Type: Ship. MMSI: 477214700.

Date/timePositionNaut miles runAvg speedWind from/ knotsBaromVisibWave heightAir tempDewpointWater temp
2017-Oct-16 15:25N 49°40' W 004°06'815.1
2017-Oct-16 14:54N 49°43' W 003°55'616.6
2017-Oct-16 14:31N 49°45' W 003°46'1818.0
2017-Oct-16 13:31N 49°52' W 003°20'918.9
2017-Oct-16 13:01N 49°56' W 003°06'1019.6
2017-Oct-16 12:31N 49°59' W 002°52'1020.5
2017-Oct-16 12:00N 50°02' W 002°37'5720.7
2017-Oct-16 09:16N 49°54' W 001°09'1117.4
2017-Oct-16 08:39N 49°50' W 000°55'416.7
2017-Oct-16 08:27N 49°48' W 000°50'716.4
2017-Oct-16 08:01N 49°45' W 000°39'611.6
2017-Oct-16 07:31N 49°42' W 000°32'0 0.6
2017-Oct-16 07:01N 49°42' W 000°32'0 0.7
2017-Oct-16 06:30N 49°42' W 000°32'0 0.9
2017-Oct-16 06:00N 49°41' W 000°32'0 1.0
2017-Oct-16 05:30N 49°41' W 000°33'1 1.0
2017-Oct-16 04:57N 49°41' W 000°33'0 1.1
2017-Oct-16 04:29N 49°41' W 000°34'1 1.0
2017-Oct-16 03:47N 49°41' W 000°35'0 0.7
2017-Oct-16 03:30N 49°41' W 000°36'0 0.5
2017-Oct-16 03:00N 49°41' W 000°36'0 0.2
2017-Oct-16 02:30N 49°41' W 000°36'0 0.5
2017-Oct-16 02:00N 49°40' W 000°36'1 1.0
2017-Oct-16 01:30N 49°40' W 000°35'1 1.7
2017-Oct-16 00:55N 49°40' W 000°34'1 2.0
2017-Oct-16 00:30N 49°39' W 000°32'1 2.0
2017-Oct-16 00:00N 49°39' W 000°31'1 1.5
2017-Oct-15 23:31N 49°38' W 000°30'0 0.7
2017-Oct-15 23:00N 49°38' W 000°30'611.4
2017-Oct-15 22:30N 49°36' W 000°22'917.1
2017-Oct-15 22:00N 49°32' W 000°10'714.1
2017-Oct-15 21:30N 49°30' E 000°00'611.1
2017-Oct-15 21:00N 49°28' E 000°08'1 2.4
2017-Oct-15 20:30N 49°29' E 000°10'0 0.0
2017-Oct-15 19:59N 49°29' E 000°10'0 0.0
2017-Oct-15 19:29N 49°29' E 000°10'0 0.0
2017-Oct-15 18:59N 49°29' E 000°10'0 0.0
2017-Oct-15 18:29N 49°29' E 000°10'0 0.0
2017-Oct-15 17:59N 49°29' E 000°10'0 0.0
2017-Oct-15 17:29N 49°29' E 000°10'0 0.0
2017-Oct-15 16:59N 49°29' E 000°10'0 0.0
2017-Oct-15 16:29N 49°29' E 000°10'0 0.0
2017-Oct-15 15:59N 49°29' E 000°10'0 0.0
2017-Oct-15 15:29N 49°29' E 000°10'0 0.0
2017-Oct-15 14:59N 49°29' E 000°10'0 0.0
2017-Oct-15 13:59N 49°29' E 000°10'0 0.0
2017-Oct-15 13:29N 49°29' E 000°10'0 0.0
2017-Oct-15 12:59N 49°29' E 000°10'0 0.0
2017-Oct-15 12:29N 49°29' E 000°10'0 0.0
2017-Oct-15 11:59N 49°29' E 000°10'0 0.0
2017-Oct-15 11:29N 49°29' E 000°10'0 0.0
2017-Oct-15 10:59N 49°29' E 000°10'0 0.0
2017-Oct-15 10:29N 49°29' E 000°10'0 0.0
2017-Oct-15 09:59N 49°29' E 000°10'0 0.0
2017-Oct-15 09:29N 49°29' E 000°10'0 0.0
2017-Oct-15 08:59N 49°29' E 000°10'0 0.0
2017-Oct-15 08:29N 49°29' E 000°10'0 0.0
2017-Oct-15 07:59N 49°29' E 000°10'0 0.0
2017-Oct-15 07:29N 49°29' E 000°10'0 0.0
2017-Oct-15 06:59N 49°29' E 000°10'0 0.0
2017-Oct-15 06:29N 49°29' E 000°10'0 0.0
2017-Oct-15 05:59N 49°29' E 000°10'0 0.0
2017-Oct-15 05:29N 49°29' E 000°10'0 0.0
2017-Oct-15 04:59N 49°29' E 000°10'0 0.0
2017-Oct-15 04:29N 49°29' E 000°10'0 0.0
2017-Oct-15 03:59N 49°29' E 000°10'0 0.0
2017-Oct-15 03:29N 49°29' E 000°10'0 0.0
2017-Oct-15 02:59N 49°29' E 000°10'0 0.0
2017-Oct-15 02:29N 49°29' E 000°10'0 0.0
2017-Oct-15 01:59N 49°29' E 000°10'0 0.0
2017-Oct-15 01:29N 49°29' E 000°10'0 0.0
2017-Oct-15 00:59N 49°29' E 000°10'0 0.0
2017-Oct-15 00:29N 49°29' E 000°10'0 0.0
2017-Oct-14 23:59N 49°29' E 000°10'0 0.0
2017-Oct-14 23:29N 49°29' E 000°10'0 0.0
2017-Oct-14 22:59N 49°29' E 000°10'0 0.0
2017-Oct-14 22:29N 49°29' E 000°10'0 0.0
2017-Oct-14 21:59N 49°29' E 000°10'0 0.0
2017-Oct-14 21:29N 49°29' E 000°10'0 0.0
2017-Oct-14 20:59N 49°29' E 000°10'0 0.0
2017-Oct-14 20:29N 49°29' E 000°10'0 0.0
2017-Oct-14 19:59N 49°29' E 000°10'0 0.5
2017-Oct-14 19:30N 49°28' E 000°10'2 3.3
2017-Oct-14 19:00N 49°28' E 000°07'5 9.9
2017-Oct-14 18:30N 49°30' E 000°00'510.7
2017-Oct-14 18:00N 49°32' W 000°08'3 6.6
2017-Oct-14 17:31N 49°34' W 000°11'5 9.2
2017-Oct-14 17:00N 49°39' W 000°11'5 9.5
2017-Oct-14 16:30N 49°44' W 000°11'611.1
2017-Oct-14 16:00N 49°49' W 000°11'713.7
2017-Oct-14 15:30N 49°56' W 000°08'612.0
2017-Oct-14 15:00N 50°02' W 000°06'611.8
2017-Oct-14 14:30N 50°08' W 000°05'612.9
2017-Oct-14 14:00N 50°14' W 000°04'1015.9
2017-Oct-14 13:24N 50°24' W 000°03'513.8
2017-Oct-14 13:00N 50°28' E 000°02'816.7
2017-Oct-14 12:30N 50°31' E 000°15'817.0
2017-Oct-14 12:01N 50°35' E 000°27'917.2
2017-Oct-14 11:30N 50°39' E 000°38'917.1
2017-Oct-14 11:00N 50°44' E 000°50'917.6
2017-Oct-14 10:30N 50°49' E 001°01'917.3
2017-Oct-14 10:00N 50°55' E 001°11'816.9
2017-Oct-14 09:31N 51°00' E 001°21'816.4
2017-Oct-14 09:01N 51°06' E 001°31'816.2
2017-Oct-14 08:30N 51°11' E 001°41'816.0
2017-Oct-14 08:01N 51°16' E 001°50'816.2
2017-Oct-14 07:31N 51°23' E 001°57'816.4
2017-Oct-14 07:01N 51°30' E 002°04'816.8
2017-Oct-14 06:31N 51°37' E 002°12'816.9
2017-Oct-14 06:00N 51°43' E 002°22'1018.9
2017-Oct-14 05:29N 51°50' E 002°32'1019.9
2017-Oct-14 04:59N 51°58' E 002°42'1020.1
2017-Oct-14 04:30N 52°05' E 002°52'1120.2
2017-Oct-14 03:59N 52°14' E 003°03'1120.1
2017-Oct-14 03:27N 52°23' E 003°13'920.3
2017-Oct-14 03:00N 52°30' E 003°22'1020.0
2017-Oct-14 02:30N 52°38' E 003°31'1019.9
2017-Oct-14 02:00N 52°46' E 003°42'1019.6
2017-Oct-14 01:30N 52°53' E 003°53'1019.1
2017-Oct-14 00:59N 53°00' E 004°04'918.6
2017-Oct-14 00:30N 53°06' E 004°15'918.2
2017-Oct-14 00:00N 53°13' E 004°25'1018.2
2017-Oct-13 23:28N 53°22' E 004°32'1017.7
2017-Oct-13 22:55N 53°30' E 004°41'717.8
2017-Oct-13 22:30N 53°33' E 004°53'917.9
2017-Oct-13 22:00N 53°36' E 005°07'1118.2
2017-Oct-13 21:24N 53°39' E 005°25'818.9
2017-Oct-13 20:59N 53°41' E 005°37'2719.3
2017-Oct-13 19:35N 53°50' E 006°20'6316.7
2017-Oct-13 15:49N 53°49' E 008°07'516.0
2017-Oct-13 15:31N 53°45' E 008°12'815.0
2017-Oct-13 15:00N 53°41' E 008°22'713.2
2017-Oct-13 14:30N 53°36' E 008°30'1 2.0
2017-Oct-13 14:00N 53°35' E 008°31'0 0.0
2017-Oct-13 13:30N 53°35' E 008°31'0 0.0
2017-Oct-13 13:00N 53°35' E 008°31'0 0.0
2017-Oct-13 12:30N 53°35' E 008°31'0 0.0
2017-Oct-13 12:00N 53°35' E 008°31'0 0.0
2017-Oct-13 11:30N 53°35' E 008°31'0 0.0
2017-Oct-13 11:00N 53°35' E 008°31'0 0.0
2017-Oct-13 10:30N 53°35' E 008°31'0 0.0
2017-Oct-13 10:00N 53°35' E 008°31'0 0.0
2017-Oct-13 09:30N 53°35' E 008°31'0 0.0
2017-Oct-13 09:00N 53°35' E 008°31'0 0.0
2017-Oct-13 08:30N 53°35' E 008°31'0 0.0
2017-Oct-13 08:00N 53°35' E 008°31'0 0.0
2017-Oct-13 07:30N 53°35' E 008°31'0 0.0
2017-Oct-13 07:00N 53°35' E 008°31'0 0.0
2017-Oct-13 06:30N 53°35' E 008°31'0 0.0
2017-Oct-13 06:00N 53°35' E 008°31'0 0.0
2017-Oct-13 05:30N 53°35' E 008°31'0 0.0
2017-Oct-13 05:00N 53°35' E 008°31'0 0.0
2017-Oct-13 04:30N 53°35' E 008°31'0 0.0
2017-Oct-13 04:00N 53°35' E 008°31'0 0.0
2017-Oct-13 03:30N 53°35' E 008°31'0 0.0
2017-Oct-13 03:00N 53°35' E 008°31'0 0.0
2017-Oct-13 02:30N 53°35' E 008°31'0 0.0
2017-Oct-13 02:00N 53°35' E 008°31'0 0.0
2017-Oct-13 01:30N 53°35' E 008°31'0 0.0
2017-Oct-13 01:00N 53°35' E 008°31'0 0.0
2017-Oct-13 00:30N 53°35' E 008°31'0 0.0
2017-Oct-13 00:00N 53°35' E 008°31'0 0.0
2017-Oct-12 23:30N 53°35' E 008°31'0 0.0
2017-Oct-12 23:00N 53°35' E 008°31'0 0.0
2017-Oct-12 22:30N 53°35' E 008°31'0 0.0
2017-Oct-12 22:00N 53°35' E 008°31'0 0.0
2017-Oct-12 21:30N 53°35' E 008°31'0 0.0
2017-Oct-12 21:00N 53°35' E 008°31'0 0.0
2017-Oct-12 20:30N 53°35' E 008°31'0 0.0
2017-Oct-12 20:00N 53°35' E 008°31'0 0.0
2017-Oct-12 19:30N 53°35' E 008°31'0 0.0
2017-Oct-12 19:00N 53°35' E 008°31'0 0.0
2017-Oct-12 18:30N 53°35' E 008°31'0 0.0
2017-Oct-12 18:00N 53°35' E 008°31'0 0.0
2017-Oct-12 17:30N 53°35' E 008°31'0 0.0
2017-Oct-12 17:00N 53°35' E 008°31'0 0.0
2017-Oct-12 16:30N 53°35' E 008°31'0 0.0
2017-Oct-12 16:00N 53°35' E 008°31'0 0.0
2017-Oct-12 15:30N 53°35' E 008°31'0 0.0
2017-Oct-12 15:00N 53°35' E 008°31'0 0.0
2017-Oct-12 14:30N 53°35' E 008°31'0 0.0
2017-Oct-12 14:00N 53°35' E 008°31'0 0.0
2017-Oct-12 13:30N 53°35' E 008°31'0 0.0
2017-Oct-12 13:00N 53°35' E 008°31'0 0.0
2017-Oct-12 12:30N 53°35' E 008°31'0 0.0
2017-Oct-12 12:00N 53°35' E 008°31'0 0.0
2017-Oct-12 11:30N 53°35' E 008°31'0 0.0
2017-Oct-12 11:00N 53°35' E 008°31'0 0.0
2017-Oct-12 10:30N 53°35' E 008°31'0 0.0
2017-Oct-12 10:00N 53°35' E 008°31'0 0.0
2017-Oct-12 09:30N 53°35' E 008°31'0 0.0
2017-Oct-12 09:00N 53°35' E 008°31'0 0.0
2017-Oct-12 08:30N 53°35' E 008°31'0 0.0
2017-Oct-12 08:00N 53°35' E 008°31'0 0.0
2017-Oct-12 07:30N 53°35' E 008°31'0 0.0
2017-Oct-12 06:59N 53°35' E 008°31'1 3.0
2017-Oct-12 06:30N 53°36' E 008°30'4 8.9
2017-Oct-12 06:00N 53°39' E 008°24'714.8
2017-Oct-12 05:30N 53°44' E 008°15'815.2
2017-Oct-12 05:00N 53°50' E 008°06'816.3
2017-Oct-12 04:30N 53°52' E 007°53'5 9.4
2017-Oct-12 04:00N 53°53' E 007°45'5 9.6
2017-Oct-12 03:30N 53°54' E 007°37'7318.3
2017-Oct-11 23:30N 53°36' E 005°36'1123.3
2017-Oct-11 23:01N 53°33' E 005°18'1223.1
2017-Oct-11 22:31N 53°29' E 004°60'1122.4
2017-Oct-11 22:01N 53°23' E 004°43'1122.6
2017-Oct-11 21:30N 53°13' E 004°35'1122.9
2017-Oct-11 21:00N 53°04' E 004°24'1122.2
2017-Oct-11 20:30N 52°54' E 004°17'1122.7
2017-Oct-11 20:00N 52°45' E 004°05'1122.0
2017-Oct-11 19:30N 52°35' E 003°55'1122.5
2017-Oct-11 19:00N 52°24' E 003°53'1122.2
2017-Oct-11 18:31N 52°13' E 003°54'1020.2
2017-Oct-11 18:01N 52°03' E 003°58'612.4
2017-Oct-11 17:31N 51°59' E 004°05'1 2.2
2017-Oct-11 17:01N 51°58' E 004°04'1 0.1
2017-Oct-11 00:00N 51°59' E 004°02'0 0.0
2017-Oct-10 23:30N 51°59' E 004°02'0 0.0
2017-Oct-10 23:00N 51°59' E 004°02'0 0.0
2017-Oct-10 22:30N 51°59' E 004°02'0 0.0
2017-Oct-10 22:00N 51°59' E 004°02'0 0.0
2017-Oct-10 21:30N 51°59' E 004°02'0 0.0
2017-Oct-10 21:00N 51°59' E 004°02'0 0.0
2017-Oct-10 20:30N 51°59' E 004°02'0 0.0
2017-Oct-10 20:00N 51°59' E 004°02'0 0.0
2017-Oct-10 19:30N 51°59' E 004°02'0 0.0
2017-Oct-10 19:00N 51°59' E 004°02'0 0.0
2017-Oct-10 18:30N 51°59' E 004°02'0 0.0
2017-Oct-10 18:00N 51°59' E 004°02'0 0.0
2017-Oct-10 17:30N 51°59' E 004°02'0 0.0
2017-Oct-10 17:00N 51°59' E 004°02'0 0.0
2017-Oct-10 16:30N 51°59' E 004°02'0 0.0
2017-Oct-10 16:00N 51°59' E 004°02'0 0.0
2017-Oct-10 15:30N 51°59' E 004°02'0 0.0
2017-Oct-10 14:57N 51°59' E 004°02'0 0.0
2017-Oct-10 14:00N 51°59' E 004°02'0 0.0
2017-Oct-10 13:30N 51°59' E 004°02'0 0.0
2017-Oct-10 13:00N 51°59' E 004°02'0 0.0
2017-Oct-10 12:30N 51°59' E 004°02'0 0.0
2017-Oct-10 12:00N 51°59' E 004°02'0 0.0
2017-Oct-10 11:30N 51°59' E 004°02'0 0.0
2017-Oct-10 11:00N 51°59' E 004°02'0 0.0
2017-Oct-10 10:30N 51°59' E 004°02'0 0.0
2017-Oct-10 10:00N 51°59' E 004°02'0 0.0
2017-Oct-10 09:30N 51°59' E 004°02'0 0.0
2017-Oct-10 09:00N 51°59' E 004°02'0 0.0
2017-Oct-10 08:30N 51°59' E 004°02'0 0.0
2017-Oct-10 08:00N 51°59' E 004°02'0 0.0
2017-Oct-10 07:30N 51°59' E 004°02'0 0.0
2017-Oct-10 07:00N 51°59' E 004°02'0 0.0
2017-Oct-10 06:30N 51°59' E 004°02'0 0.1
2017-Oct-10 06:00N 51°59' E 004°02'0 0.1
2017-Oct-10 05:30N 51°59' E 004°02'0 0.0
2017-Oct-10 05:00N 51°59' E 004°02'0 0.0
2017-Oct-10 04:30N 51°59' E 004°02'0 0.0
2017-Oct-10 04:00N 51°59' E 004°02'0 0.0
2017-Oct-10 03:30N 51°59' E 004°02'0 0.0
2017-Oct-10 03:00N 51°59' E 004°02'0 0.0
2017-Oct-10 02:30N 51°59' E 004°02'0 0.0
2017-Oct-10 02:00N 51°59' E 004°02'0 0.0
2017-Oct-10 01:30N 51°59' E 004°02'0 0.0
2017-Oct-10 01:00N 51°59' E 004°02'1 1.1
2017-Oct-10 00:31N 51°58' E 004°03'1 2.6
2017-Oct-10 00:01N 51°59' E 004°05'4 8.4
2017-Oct-09 23:31N 51°60' E 003°58'510.1
2017-Oct-09 23:01N 52°00' E 003°50'3 6.6
2017-Oct-09 22:31N 51°59' E 003°45'611.6
2017-Oct-09 22:00N 51°58' E 003°36'816.5
2017-Oct-09 21:30N 51°55' E 003°23'915.6
2017-Oct-09 20:55N 51°47' E 003°16'614.3
2017-Oct-09 20:30N 51°41' E 003°13'917.8
2017-Oct-09 20:00N 51°33' E 003°08'917.8
2017-Oct-09 19:30N 51°26' E 002°59'917.5
2017-Oct-09 19:00N 51°25' E 003°13'1019.7
2017-Oct-09 18:30N 51°25' E 003°29'713.5
2017-Oct-09 18:00N 51°26' E 003°39'816.8
2017-Oct-09 17:30N 51°21' E 003°49'815.4
2017-Oct-09 17:00N 51°26' E 003°59'612.2
2017-Oct-09 16:30N 51°22' E 004°06'5 9.9
2017-Oct-09 16:00N 51°21' E 004°14'4 7.6
2017-Oct-09 15:31N 51°18' E 004°16'1 1.3
2017-Oct-09 15:01N 51°17' E 004°16'0 0.0
2017-Oct-09 14:29N 51°17' E 004°16'0 0.0
2017-Oct-09 13:59N 51°17' E 004°16'0 0.0
2017-Oct-09 13:29N 51°17' E 004°16'0 0.0
2017-Oct-09 12:59N 51°17' E 004°16'0 0.0
2017-Oct-09 12:29N 51°17' E 004°16'0 0.0
2017-Oct-09 11:59N 51°17' E 004°16'0 0.0
2017-Oct-09 11:29N 51°17' E 004°16'0 0.0
2017-Oct-09 10:59N 51°17' E 004°16'0 0.0
2017-Oct-09 10:29N 51°17' E 004°16'0 0.0
2017-Oct-09 09:59N 51°17' E 004°16'0 0.0
2017-Oct-09 09:26N 51°17' E 004°16'0 0.0
2017-Oct-09 08:59N 51°17' E 004°16'0 0.0
2017-Oct-09 08:29N 51°17' E 004°16'0 0.0
2017-Oct-09 07:59N 51°17' E 004°16'0 0.0
2017-Oct-09 07:29N 51°17' E 004°16'0 0.0
2017-Oct-09 06:59N 51°17' E 004°16'0 0.0
2017-Oct-09 06:29N 51°17' E 004°16'0 0.0
2017-Oct-09 05:56N 51°17' E 004°16'0 0.0
2017-Oct-09 05:29N 51°17' E 004°16'0 0.0
2017-Oct-09 04:59N 51°17' E 004°16'0 0.0
2017-Oct-09 04:29N 51°17' E 004°16'0 0.0
2017-Oct-09 03:56N 51°17' E 004°16'0 0.0
2017-Oct-09 03:29N 51°17' E 004°16'0 0.0
2017-Oct-09 02:59N 51°17' E 004°16'0 0.0
2017-Oct-09 02:29N 51°17' E 004°16'0 0.0
2017-Oct-09 01:59N 51°17' E 004°16'0 0.0
2017-Oct-09 01:29N 51°17' E 004°16'0 0.0
2017-Oct-09 00:59N 51°17' E 004°16'0 0.0
2017-Oct-09 00:29N 51°17' E 004°16'0 0.0
2017-Oct-08 23:58N 51°17' E 004°16'0 0.0
2017-Oct-08 23:28N 51°17' E 004°16'0 0.0
2017-Oct-08 22:58N 51°17' E 004°16'0 0.0
2017-Oct-08 22:28N 51°17' E 004°16'0 0.0
2017-Oct-08 21:58N 51°17' E 004°16'0 0.0
2017-Oct-08 21:28N 51°17' E 004°16'0 0.0
2017-Oct-08 20:58N 51°17' E 004°16'0 0.0
2017-Oct-08 20:28N 51°17' E 004°16'0 0.0
2017-Oct-08 19:55N 51°17' E 004°16'0 0.0
2017-Oct-08 19:28N 51°17' E 004°16'0 0.0
2017-Oct-08 18:58N 51°17' E 004°16'0 0.0
2017-Oct-08 18:30N 51°17' E 004°16'1 1.9
2017-Oct-08 18:00N 51°18' E 004°16'2 4.7
2017-Oct-08 17:31N 51°20' E 004°16'5 9.6
2017-Oct-08 17:00N 51°23' E 004°10'611.1
2017-Oct-08 16:30N 51°25' E 004°02'612.8
2017-Oct-08 16:00N 51°21' E 003°54'714.4
2017-Oct-08 15:30N 51°24' E 003°43'612.2
2017-Oct-08 15:00N 51°25' E 003°33'816.1
2017-Oct-08 14:30N 51°24' E 003°21'918.4
2017-Oct-08 14:01N 51°24' E 003°06'918.0
2017-Oct-08 13:30N 51°26' E 002°52'713.3
2017-Oct-08 13:00N 51°22' E 002°43'3 6.2
2017-Oct-08 12:30N 51°22' E 002°38'5 9.5
2017-Oct-08 12:00N 51°22' E 002°30'611.4
2017-Oct-08 11:30N 51°19' E 002°22'611.3
2017-Oct-08 11:01N 51°16' E 002°15'5 9.5
2017-Oct-08 10:31N 51°14' E 002°08'5 9.8
2017-Oct-08 10:00N 51°12' E 002°01'5 9.6
2017-Oct-08 09:30N 51°10' E 001°54'4 8.9
2017-Oct-08 09:00N 51°08' E 001°48'5 9.5
2017-Oct-08 08:30N 51°05' E 001°43'5 9.8
2017-Oct-08 08:01N 51°01' E 001°38'510.1
2017-Oct-08 07:30N 50°57' E 001°32'510.2
2017-Oct-08 07:00N 50°53' E 001°28'5 9.9
2017-Oct-08 06:30N 50°48' E 001°25'611.6
2017-Oct-08 06:00N 50°43' E 001°21'611.8
2017-Oct-08 05:30N 50°38' E 001°15'2612.3
2017-Oct-08 03:22N 50°26' E 000°38'712.6
2017-Oct-08 02:48N 50°24' E 000°27'412.5
2017-Oct-08 02:30N 50°24' E 000°22'612.5
2017-Oct-08 02:00N 50°22' E 000°12'612.7
2017-Oct-08 01:30N 50°21' E 000°02'713.0
2017-Oct-08 01:00N 50°22' W 000°08'713.2
2017-Oct-08 00:31N 50°24' W 000°18'714.0
2017-Oct-08 00:00N 50°27' W 000°27'714.5
2017-Oct-07 23:30N 50°31' W 000°37'714.7
2017-Oct-07 23:00N 50°34' W 000°47'713.4
2017-Oct-07 22:31N 50°39' W 000°55'510.4
2017-Oct-07 22:01N 50°43' W 000°60'917.4
2017-Oct-07 21:31N 50°46' W 001°13'510.0
2017-Oct-07 21:00N 50°49' W 001°18'5 9.4
2017-Oct-07 20:30N 50°53' W 001°24'1 2.8
2017-Oct-07 20:00N 50°54' W 001°25'1 2.2
2017-Oct-07 19:30N 50°54' W 001°27'1 1.7
2017-Oct-07 19:00N 50°55' W 001°28'0 0.0
2017-Oct-07 18:28N 50°55' W 001°28'0 0.0
2017-Oct-07 17:58N 50°55' W 001°28'0 0.0
2017-Oct-07 17:28N 50°55' W 001°28'0 0.0
2017-Oct-07 16:58N 50°55' W 001°28'0 0.0
2017-Oct-07 16:28N 50°55' W 001°28'0 0.0
2017-Oct-07 15:58N 50°55' W 001°28'0 0.0
2017-Oct-07 15:28N 50°55' W 001°28'0 0.0
2017-Oct-07 14:58N 50°55' W 001°28'0 0.0
2017-Oct-07 14:28N 50°55' W 001°28'0 0.0
2017-Oct-07 13:58N 50°55' W 001°28'0 0.0
2017-Oct-07 13:28N 50°55' W 001°28'0 0.0
2017-Oct-07 12:58N 50°55' W 001°28'0 0.0
2017-Oct-07 12:28N 50°55' W 001°28'0 0.0
2017-Oct-07 11:55N 50°55' W 001°28'0 0.0
2017-Oct-07 11:28N 50°55' W 001°28'0 0.0
2017-Oct-07 10:58N 50°55' W 001°28'0 0.0
2017-Oct-07 10:28N 50°55' W 001°28'0 0.0
2017-Oct-07 09:58N 50°55' W 001°28'0 0.0
2017-Oct-07 09:28N 50°55' W 001°28'0 0.0
2017-Oct-07 08:58N 50°55' W 001°28'0 0.0
2017-Oct-07 08:28N 50°55' W 001°28'0 0.0
2017-Oct-07 07:58N 50°55' W 001°28'0 0.0
2017-Oct-07 07:28N 50°55' W 001°28'0 0.0
2017-Oct-07 06:58N 50°55' W 001°28'0 0.0
2017-Oct-07 06:28N 50°55' W 001°28'0 0.0
2017-Oct-07 05:58N 50°55' W 001°28'0 0.0
2017-Oct-07 05:28N 50°55' W 001°28'1 1.6
2017-Oct-07 05:00N 50°54' W 001°27'3 5.3
2017-Oct-07 04:30N 50°53' W 001°23'5 9.3
2017-Oct-07 04:01N 50°49' W 001°18'4 7.4
2017-Oct-07 03:31N 50°46' W 001°15'815.2
2017-Oct-07 03:01N 50°44' W 001°04'613.0
2017-Oct-07 02:31N 50°39' W 000°57'4 8.6
2017-Oct-07 02:00N 50°35' W 000°59'510.4
2017-Oct-07 01:30N 50°31' W 001°05'3 6.8
2017-Oct-07 01:00N 50°29' W 001°09'3 6.4
2017-Oct-07 00:30N 50°27' W 001°13'1 2.0
2017-Oct-07 00:00N 50°26' W 001°12'1 1.9
2017-Oct-06 23:30N 50°25' W 001°11'4 8.0
2017-Oct-06 23:00N 50°22' W 001°15'5 8.8
2017-Oct-06 22:24N 50°18' W 001°20'4 9.2
2017-Oct-06 22:00N 50°15' W 001°23'5812.4
2017-Oct-06 17:18N 49°51' W 002°46'613.2
2017-Oct-06 16:51N 49°49' W 002°55'713.0
2017-Oct-06 16:19N 49°49' W 003°06'412.7
2017-Oct-06 16:00N 49°48' W 003°12'612.4
2017-Oct-06 15:30N 49°48' W 003°22'  
Track history (hours):
 
Tides and Currents Weather Stations Pressure Air Temp Water Temp Dewpoint Dewpoint Depression Visibility Wind Speed Wind Dir Waves Ship Positions

OOCL Europe

Last reported at 2017-Oct-16 15:25 UTC. Time now 2017-Oct-17 20:34 UTC.
Position N 49°40' W 004°06'.

Length 323 m; draft 12.6 m.

Type: Ship. MMSI: 477214700.

Date/timePositionNaut miles runAvg speedWind from/ knotsBaromVisibWave heightAir tempDewpointWater temp
2017-Oct-16 15:25N 49°40' W 004°06'815.1
2017-Oct-16 14:54N 49°43' W 003°55'616.6
2017-Oct-16 14:31N 49°45' W 003°46'1818.0
2017-Oct-16 13:31N 49°52' W 003°20'918.9
2017-Oct-16 13:01N 49°56' W 003°06'1019.6
2017-Oct-16 12:31N 49°59' W 002°52'1020.5
2017-Oct-16 12:00N 50°02' W 002°37'5720.7
2017-Oct-16 09:16N 49°54' W 001°09'1117.4
2017-Oct-16 08:39N 49°50' W 000°55'416.7
2017-Oct-16 08:27N 49°48' W 000°50'716.4
2017-Oct-16 08:01N 49°45' W 000°39'611.6
2017-Oct-16 07:31N 49°42' W 000°32'0 0.6
2017-Oct-16 07:01N 49°42' W 000°32'0 0.7
2017-Oct-16 06:30N 49°42' W 000°32'0 0.9
2017-Oct-16 06:00N 49°41' W 000°32'0 1.0
2017-Oct-16 05:30N 49°41' W 000°33'1 1.0
2017-Oct-16 04:57N 49°41' W 000°33'0 1.1
2017-Oct-16 04:29N 49°41' W 000°34'1 1.0
2017-Oct-16 03:47N 49°41' W 000°35'0 0.7
2017-Oct-16 03:30N 49°41' W 000°36'0 0.5
2017-Oct-16 03:00N 49°41' W 000°36'0 0.2
2017-Oct-16 02:30N 49°41' W 000°36'0 0.5
2017-Oct-16 02:00N 49°40' W 000°36'1 1.0
2017-Oct-16 01:30N 49°40' W 000°35'1 1.7
2017-Oct-16 00:55N 49°40' W 000°34'1 2.0
2017-Oct-16 00:30N 49°39' W 000°32'1 2.0
2017-Oct-16 00:00N 49°39' W 000°31'1 1.5
2017-Oct-15 23:31N 49°38' W 000°30'0 0.7
2017-Oct-15 23:00N 49°38' W 000°30'611.4
2017-Oct-15 22:30N 49°36' W 000°22'917.1
2017-Oct-15 22:00N 49°32' W 000°10'714.1
2017-Oct-15 21:30N 49°30' E 000°00'611.1
2017-Oct-15 21:00N 49°28' E 000°08'1 2.4
2017-Oct-15 20:30N 49°29' E 000°10'0 0.0
2017-Oct-15 19:59N 49°29' E 000°10'0 0.0
2017-Oct-15 19:29N 49°29' E 000°10'0 0.0
2017-Oct-15 18:59N 49°29' E 000°10'0 0.0
2017-Oct-15 18:29N 49°29' E 000°10'0 0.0
2017-Oct-15 17:59N 49°29' E 000°10'0 0.0
2017-Oct-15 17:29N 49°29' E 000°10'0 0.0
2017-Oct-15 16:59N 49°29' E 000°10'0 0.0
2017-Oct-15 16:29N 49°29' E 000°10'0 0.0
2017-Oct-15 15:59N 49°29' E 000°10'0 0.0
2017-Oct-15 15:29N 49°29' E 000°10'0 0.0
2017-Oct-15 14:59N 49°29' E 000°10'0 0.0
2017-Oct-15 13:59N 49°29' E 000°10'0 0.0
2017-Oct-15 13:29N 49°29' E 000°10'0 0.0
2017-Oct-15 12:59N 49°29' E 000°10'0 0.0
2017-Oct-15 12:29N 49°29' E 000°10'0 0.0
2017-Oct-15 11:59N 49°29' E 000°10'0 0.0
2017-Oct-15 11:29N 49°29' E 000°10'0 0.0
2017-Oct-15 10:59N 49°29' E 000°10'0 0.0
2017-Oct-15 10:29N 49°29' E 000°10'0 0.0
2017-Oct-15 09:59N 49°29' E 000°10'0 0.0
2017-Oct-15 09:29N 49°29' E 000°10'0 0.0
2017-Oct-15 08:59N 49°29' E 000°10'0 0.0
2017-Oct-15 08:29N 49°29' E 000°10'0 0.0
2017-Oct-15 07:59N 49°29' E 000°10'0 0.0
2017-Oct-15 07:29N 49°29' E 000°10'0 0.0
2017-Oct-15 06:59N 49°29' E 000°10'0 0.0
2017-Oct-15 06:29N 49°29' E 000°10'0 0.0
2017-Oct-15 05:59N 49°29' E 000°10'0 0.0
2017-Oct-15 05:29N 49°29' E 000°10'0 0.0
2017-Oct-15 04:59N 49°29' E 000°10'0 0.0
2017-Oct-15 04:29N 49°29' E 000°10'0 0.0
2017-Oct-15 03:59N 49°29' E 000°10'0 0.0
2017-Oct-15 03:29N 49°29' E 000°10'0 0.0
2017-Oct-15 02:59N 49°29' E 000°10'0 0.0
2017-Oct-15 02:29N 49°29' E 000°10'0 0.0
2017-Oct-15 01:59N 49°29' E 000°10'0 0.0
2017-Oct-15 01:29N 49°29' E 000°10'0 0.0
2017-Oct-15 00:59N 49°29' E 000°10'0 0.0
2017-Oct-15 00:29N 49°29' E 000°10'0 0.0
2017-Oct-14 23:59N 49°29' E 000°10'0 0.0
2017-Oct-14 23:29N 49°29' E 000°10'0 0.0
2017-Oct-14 22:59N 49°29' E 000°10'0 0.0
2017-Oct-14 22:29N 49°29' E 000°10'0 0.0
2017-Oct-14 21:59N 49°29' E 000°10'0 0.0
2017-Oct-14 21:29N 49°29' E 000°10'0 0.0
2017-Oct-14 20:59N 49°29' E 000°10'0 0.0
2017-Oct-14 20:29N 49°29' E 000°10'0 0.0
2017-Oct-14 19:59N 49°29' E 000°10'0 0.5
2017-Oct-14 19:30N 49°28' E 000°10'2 3.3
2017-Oct-14 19:00N 49°28' E 000°07'5 9.9
2017-Oct-14 18:30N 49°30' E 000°00'510.7
2017-Oct-14 18:00N 49°32' W 000°08'3 6.6
2017-Oct-14 17:31N 49°34' W 000°11'5 9.2
2017-Oct-14 17:00N 49°39' W 000°11'5 9.5
2017-Oct-14 16:30N 49°44' W 000°11'611.1
2017-Oct-14 16:00N 49°49' W 000°11'713.7
2017-Oct-14 15:30N 49°56' W 000°08'612.0
2017-Oct-14 15:00N 50°02' W 000°06'611.8
2017-Oct-14 14:30N 50°08' W 000°05'612.9
2017-Oct-14 14:00N 50°14' W 000°04'1015.9
2017-Oct-14 13:24N 50°24' W 000°03'513.8
2017-Oct-14 13:00N 50°28' E 000°02'816.7
2017-Oct-14 12:30N 50°31' E 000°15'817.0
2017-Oct-14 12:01N 50°35' E 000°27'917.2
2017-Oct-14 11:30N 50°39' E 000°38'917.1
2017-Oct-14 11:00N 50°44' E 000°50'917.6
2017-Oct-14 10:30N 50°49' E 001°01'917.3
2017-Oct-14 10:00N 50°55' E 001°11'816.9
2017-Oct-14 09:31N 51°00' E 001°21'816.4
2017-Oct-14 09:01N 51°06' E 001°31'816.2
2017-Oct-14 08:30N 51°11' E 001°41'816.0
2017-Oct-14 08:01N 51°16' E 001°50'816.2
2017-Oct-14 07:31N 51°23' E 001°57'816.4
2017-Oct-14 07:01N 51°30' E 002°04'816.8
2017-Oct-14 06:31N 51°37' E 002°12'816.9
2017-Oct-14 06:00N 51°43' E 002°22'1018.9
2017-Oct-14 05:29N 51°50' E 002°32'1019.9
2017-Oct-14 04:59N 51°58' E 002°42'1020.1
2017-Oct-14 04:30N 52°05' E 002°52'1120.2
2017-Oct-14 03:59N 52°14' E 003°03'1120.1
2017-Oct-14 03:27N 52°23' E 003°13'920.3
2017-Oct-14 03:00N 52°30' E 003°22'1020.0
2017-Oct-14 02:30N 52°38' E 003°31'1019.9
2017-Oct-14 02:00N 52°46' E 003°42'1019.6
2017-Oct-14 01:30N 52°53' E 003°53'1019.1
2017-Oct-14 00:59N 53°00' E 004°04'918.6
2017-Oct-14 00:30N 53°06' E 004°15'918.2
2017-Oct-14 00:00N 53°13' E 004°25'1018.2
2017-Oct-13 23:28N 53°22' E 004°32'1017.7
2017-Oct-13 22:55N 53°30' E 004°41'717.8
2017-Oct-13 22:30N 53°33' E 004°53'917.9
2017-Oct-13 22:00N 53°36' E 005°07'1118.2
2017-Oct-13 21:24N 53°39' E 005°25'818.9
2017-Oct-13 20:59N 53°41' E 005°37'2719.3
2017-Oct-13 19:35N 53°50' E 006°20'6316.7
2017-Oct-13 15:49N 53°49' E 008°07'516.0
2017-Oct-13 15:31N 53°45' E 008°12'815.0
2017-Oct-13 15:00N 53°41' E 008°22'713.2
2017-Oct-13 14:30N 53°36' E 008°30'1 2.0
2017-Oct-13 14:00N 53°35' E 008°31'0 0.0
2017-Oct-13 13:30N 53°35' E 008°31'0 0.0
2017-Oct-13 13:00N 53°35' E 008°31'0 0.0
2017-Oct-13 12:30N 53°35' E 008°31'0 0.0
2017-Oct-13 12:00N 53°35' E 008°31'0 0.0
2017-Oct-13 11:30N 53°35' E 008°31'0 0.0
2017-Oct-13 11:00N 53°35' E 008°31'0 0.0
2017-Oct-13 10:30N 53°35' E 008°31'0 0.0
2017-Oct-13 10:00N 53°35' E 008°31'0 0.0
2017-Oct-13 09:30N 53°35' E 008°31'0 0.0
2017-Oct-13 09:00N 53°35' E 008°31'0 0.0
2017-Oct-13 08:30N 53°35' E 008°31'0 0.0
2017-Oct-13 08:00N 53°35' E 008°31'0 0.0
2017-Oct-13 07:30N 53°35' E 008°31'0 0.0
2017-Oct-13 07:00N 53°35' E 008°31'0 0.0
2017-Oct-13 06:30N 53°35' E 008°31'0 0.0
2017-Oct-13 06:00N 53°35' E 008°31'0 0.0
2017-Oct-13 05:30N 53°35' E 008°31'0 0.0
2017-Oct-13 05:00N 53°35' E 008°31'0 0.0
2017-Oct-13 04:30N 53°35' E 008°31'0 0.0
2017-Oct-13 04:00N 53°35' E 008°31'0 0.0
2017-Oct-13 03:30N 53°35' E 008°31'0 0.0
2017-Oct-13 03:00N 53°35' E 008°31'0 0.0
2017-Oct-13 02:30N 53°35' E 008°31'0 0.0
2017-Oct-13 02:00N 53°35' E 008°31'0 0.0
2017-Oct-13 01:30N 53°35' E 008°31'0 0.0
2017-Oct-13 01:00N 53°35' E 008°31'0 0.0
2017-Oct-13 00:30N 53°35' E 008°31'0 0.0
2017-Oct-13 00:00N 53°35' E 008°31'0 0.0
2017-Oct-12 23:30N 53°35' E 008°31'0 0.0
2017-Oct-12 23:00N 53°35' E 008°31'0 0.0
2017-Oct-12 22:30N 53°35' E 008°31'0 0.0
2017-Oct-12 22:00N 53°35' E 008°31'0 0.0
2017-Oct-12 21:30N 53°35' E 008°31'0 0.0
2017-Oct-12 21:00N 53°35' E 008°31'0 0.0
2017-Oct-12 20:30N 53°35' E 008°31'0 0.0
2017-Oct-12 20:00N 53°35' E 008°31'0 0.0
2017-Oct-12 19:30N 53°35' E 008°31'0 0.0
2017-Oct-12 19:00N 53°35' E 008°31'0 0.0
2017-Oct-12 18:30N 53°35' E 008°31'0 0.0
2017-Oct-12 18:00N 53°35' E 008°31'0 0.0
2017-Oct-12 17:30N 53°35' E 008°31'0 0.0
2017-Oct-12 17:00N 53°35' E 008°31'0 0.0
2017-Oct-12 16:30N 53°35' E 008°31'0 0.0
2017-Oct-12 16:00N 53°35' E 008°31'0 0.0
2017-Oct-12 15:30N 53°35' E 008°31'0 0.0
2017-Oct-12 15:00N 53°35' E 008°31'0 0.0
2017-Oct-12 14:30N 53°35' E 008°31'0 0.0
2017-Oct-12 14:00N 53°35' E 008°31'0 0.0
2017-Oct-12 13:30N 53°35' E 008°31'0 0.0
2017-Oct-12 13:00N 53°35' E 008°31'0 0.0
2017-Oct-12 12:30N 53°35' E 008°31'0 0.0
2017-Oct-12 12:00N 53°35' E 008°31'0 0.0
2017-Oct-12 11:30N 53°35' E 008°31'0 0.0
2017-Oct-12 11:00N 53°35' E 008°31'0 0.0
2017-Oct-12 10:30N 53°35' E 008°31'0 0.0
2017-Oct-12 10:00N 53°35' E 008°31'0 0.0
2017-Oct-12 09:30N 53°35' E 008°31'0 0.0
2017-Oct-12 09:00N 53°35' E 008°31'0 0.0
2017-Oct-12 08:30N 53°35' E 008°31'0 0.0
2017-Oct-12 08:00N 53°35' E 008°31'0 0.0
2017-Oct-12 07:30N 53°35' E 008°31'0 0.0
2017-Oct-12 06:59N 53°35' E 008°31'1 3.0
2017-Oct-12 06:30N 53°36' E 008°30'4 8.9
2017-Oct-12 06:00N 53°39' E 008°24'714.8
2017-Oct-12 05:30N 53°44' E 008°15'815.2
2017-Oct-12 05:00N 53°50' E 008°06'816.3
2017-Oct-12 04:30N 53°52' E 007°53'5 9.4
2017-Oct-12 04:00N 53°53' E 007°45'5 9.6
2017-Oct-12 03:30N 53°54' E 007°37'7318.3
2017-Oct-11 23:30N 53°36' E 005°36'1123.3
2017-Oct-11 23:01N 53°33' E 005°18'1223.1
2017-Oct-11 22:31N 53°29' E 004°60'1122.4
2017-Oct-11 22:01N 53°23' E 004°43'1122.6
2017-Oct-11 21:30N 53°13' E 004°35'1122.9
2017-Oct-11 21:00N 53°04' E 004°24'1122.2
2017-Oct-11 20:30N 52°54' E 004°17'1122.7
2017-Oct-11 20:00N 52°45' E 004°05'1122.0
2017-Oct-11 19:30N 52°35' E 003°55'1122.5
2017-Oct-11 19:00N 52°24' E 003°53'1122.2
2017-Oct-11 18:31N 52°13' E 003°54'1020.2
2017-Oct-11 18:01N 52°03' E 003°58'612.4
2017-Oct-11 17:31N 51°59' E 004°05'1 2.2
2017-Oct-11 17:01N 51°58' E 004°04'1 0.1
2017-Oct-11 00:00N 51°59' E 004°02'0 0.0
2017-Oct-10 23:30N 51°59' E 004°02'0 0.0
2017-Oct-10 23:00N 51°59' E 004°02'0 0.0
2017-Oct-10 22:30N 51°59' E 004°02'0 0.0
2017-Oct-10 22:00N 51°59' E 004°02'0 0.0
2017-Oct-10 21:30N 51°59' E 004°02'0 0.0
2017-Oct-10 21:00N 51°59' E 004°02'0 0.0
2017-Oct-10 20:30N 51°59' E 004°02'0 0.0
2017-Oct-10 20:00N 51°59' E 004°02'0 0.0
2017-Oct-10 19:30N 51°59' E 004°02'0 0.0
2017-Oct-10 19:00N 51°59' E 004°02'0 0.0
2017-Oct-10 18:30N 51°59' E 004°02'0 0.0
2017-Oct-10 18:00N 51°59' E 004°02'0 0.0
2017-Oct-10 17:30N 51°59' E 004°02'0 0.0
2017-Oct-10 17:00N 51°59' E 004°02'0 0.0
2017-Oct-10 16:30N 51°59' E 004°02'0 0.0
2017-Oct-10 16:00N 51°59' E 004°02'0 0.0
2017-Oct-10 15:30N 51°59' E 004°02'0 0.0
2017-Oct-10 14:57N 51°59' E 004°02'0 0.0
2017-Oct-10 14:00N 51°59' E 004°02'0 0.0
2017-Oct-10 13:30N 51°59' E 004°02'0 0.0
2017-Oct-10 13:00N 51°59' E 004°02'0 0.0
2017-Oct-10 12:30N 51°59' E 004°02'0 0.0
2017-Oct-10 12:00N 51°59' E 004°02'0 0.0
2017-Oct-10 11:30N 51°59' E 004°02'0 0.0
2017-Oct-10 11:00N 51°59' E 004°02'0 0.0
2017-Oct-10 10:30N 51°59' E 004°02'0 0.0
2017-Oct-10 10:00N 51°59' E 004°02'0 0.0
2017-Oct-10 09:30N 51°59' E 004°02'0 0.0
2017-Oct-10 09:00N 51°59' E 004°02'0 0.0
2017-Oct-10 08:30N 51°59' E 004°02'0 0.0
2017-Oct-10 08:00N 51°59' E 004°02'0 0.0
2017-Oct-10 07:30N 51°59' E 004°02'0 0.0
2017-Oct-10 07:00N 51°59' E 004°02'0 0.0
2017-Oct-10 06:30N 51°59' E 004°02'0 0.1
2017-Oct-10 06:00N 51°59' E 004°02'0 0.1
2017-Oct-10 05:30N 51°59' E 004°02'0 0.0
2017-Oct-10 05:00N 51°59' E 004°02'0 0.0
2017-Oct-10 04:30N 51°59' E 004°02'0 0.0
2017-Oct-10 04:00N 51°59' E 004°02'0 0.0
2017-Oct-10 03:30N 51°59' E 004°02'0 0.0
2017-Oct-10 03:00N 51°59' E 004°02'0 0.0
2017-Oct-10 02:30N 51°59' E 004°02'0 0.0
2017-Oct-10 02:00N 51°59' E 004°02'0 0.0
2017-Oct-10 01:30N 51°59' E 004°02'0 0.0
2017-Oct-10 01:00N 51°59' E 004°02'1 1.1
2017-Oct-10 00:31N 51°58' E 004°03'1 2.6
2017-Oct-10 00:01N 51°59' E 004°05'4 8.4
2017-Oct-09 23:31N 51°60' E 003°58'510.1
2017-Oct-09 23:01N 52°00' E 003°50'3 6.6
2017-Oct-09 22:31N 51°59' E 003°45'611.6
2017-Oct-09 22:00N 51°58' E 003°36'816.5
2017-Oct-09 21:30N 51°55' E 003°23'915.6
2017-Oct-09 20:55N 51°47' E 003°16'614.3
2017-Oct-09 20:30N 51°41' E 003°13'917.8
2017-Oct-09 20:00N 51°33' E 003°08'917.8
2017-Oct-09 19:30N 51°26' E 002°59'917.5
2017-Oct-09 19:00N 51°25' E 003°13'1019.7
2017-Oct-09 18:30N 51°25' E 003°29'713.5
2017-Oct-09 18:00N 51°26' E 003°39'816.8
2017-Oct-09 17:30N 51°21' E 003°49'815.4
2017-Oct-09 17:00N 51°26' E 003°59'612.2
2017-Oct-09 16:30N 51°22' E 004°06'5 9.9
2017-Oct-09 16:00N 51°21' E 004°14'4 7.6
2017-Oct-09 15:31N 51°18' E 004°16'1 1.3
2017-Oct-09 15:01N 51°17' E 004°16'0 0.0
2017-Oct-09 14:29N 51°17' E 004°16'0 0.0
2017-Oct-09 13:59N 51°17' E 004°16'0 0.0
2017-Oct-09 13:29N 51°17' E 004°16'0 0.0
2017-Oct-09 12:59N 51°17' E 004°16'0 0.0
2017-Oct-09 12:29N 51°17' E 004°16'0 0.0
2017-Oct-09 11:59N 51°17' E 004°16'0 0.0
2017-Oct-09 11:29N 51°17' E 004°16'0 0.0
2017-Oct-09 10:59N 51°17' E 004°16'0 0.0
2017-Oct-09 10:29N 51°17' E 004°16'0 0.0
2017-Oct-09 09:59N 51°17' E 004°16'0 0.0
2017-Oct-09 09:26N 51°17' E 004°16'0 0.0
2017-Oct-09 08:59N 51°17' E 004°16'0 0.0
2017-Oct-09 08:29N 51°17' E 004°16'0 0.0
2017-Oct-09 07:59N 51°17' E 004°16'0 0.0
2017-Oct-09 07:29N 51°17' E 004°16'0 0.0
2017-Oct-09 06:59N 51°17' E 004°16'0 0.0
2017-Oct-09 06:29N 51°17' E 004°16'0 0.0
2017-Oct-09 05:56N 51°17' E 004°16'0 0.0
2017-Oct-09 05:29N 51°17' E 004°16'0 0.0
2017-Oct-09 04:59N 51°17' E 004°16'0 0.0
2017-Oct-09 04:29N 51°17' E 004°16'0 0.0
2017-Oct-09 03:56N 51°17' E 004°16'0 0.0
2017-Oct-09 03:29N 51°17' E 004°16'0 0.0
2017-Oct-09 02:59N 51°17' E 004°16'0 0.0
2017-Oct-09 02:29N 51°17' E 004°16'0 0.0
2017-Oct-09 01:59N 51°17' E 004°16'0 0.0
2017-Oct-09 01:29N 51°17' E 004°16'0 0.0
2017-Oct-09 00:59N 51°17' E 004°16'0 0.0
2017-Oct-09 00:29N 51°17' E 004°16'0 0.0
2017-Oct-08 23:58N 51°17' E 004°16'0 0.0
2017-Oct-08 23:28N 51°17' E 004°16'0 0.0
2017-Oct-08 22:58N 51°17' E 004°16'0 0.0
2017-Oct-08 22:28N 51°17' E 004°16'0 0.0
2017-Oct-08 21:58N 51°17' E 004°16'0 0.0
2017-Oct-08 21:28N 51°17' E 004°16'0 0.0
2017-Oct-08 20:58N 51°17' E 004°16'0 0.0
2017-Oct-08 20:28N 51°17' E 004°16'0 0.0
2017-Oct-08 19:55N 51°17' E 004°16'0 0.0
2017-Oct-08 19:28N 51°17' E 004°16'0 0.0
2017-Oct-08 18:58N 51°17' E 004°16'0 0.0
2017-Oct-08 18:30N 51°17' E 004°16'1 1.9
2017-Oct-08 18:00N 51°18' E 004°16'2 4.7
2017-Oct-08 17:31N 51°20' E 004°16'5 9.6
2017-Oct-08 17:00N 51°23' E 004°10'611.1
2017-Oct-08 16:30N 51°25' E 004°02'612.8
2017-Oct-08 16:00N 51°21' E 003°54'714.4
2017-Oct-08 15:30N 51°24' E 003°43'612.2
2017-Oct-08 15:00N 51°25' E 003°33'816.1
2017-Oct-08 14:30N 51°24' E 003°21'918.4
2017-Oct-08 14:01N 51°24' E 003°06'918.0
2017-Oct-08 13:30N 51°26' E 002°52'713.3
2017-Oct-08 13:00N 51°22' E 002°43'3 6.2
2017-Oct-08 12:30N 51°22' E 002°38'5 9.5
2017-Oct-08 12:00N 51°22' E 002°30'611.4
2017-Oct-08 11:30N 51°19' E 002°22'611.3
2017-Oct-08 11:01N 51°16' E 002°15'5 9.5
2017-Oct-08 10:31N 51°14' E 002°08'5 9.8
2017-Oct-08 10:00N 51°12' E 002°01'5 9.6
2017-Oct-08 09:30N 51°10' E 001°54'4 8.9
2017-Oct-08 09:00N 51°08' E 001°48'5 9.5
2017-Oct-08 08:30N 51°05' E 001°43'5 9.8
2017-Oct-08 08:01N 51°01' E 001°38'510.1
2017-Oct-08 07:30N 50°57' E 001°32'510.2
2017-Oct-08 07:00N 50°53' E 001°28'5 9.9
2017-Oct-08 06:30N 50°48' E 001°25'611.6
2017-Oct-08 06:00N 50°43' E 001°21'611.8
2017-Oct-08 05:30N 50°38' E 001°15'2612.3
2017-Oct-08 03:22N 50°26' E 000°38'712.6
2017-Oct-08 02:48N 50°24' E 000°27'412.5
2017-Oct-08 02:30N 50°24' E 000°22'612.5
2017-Oct-08 02:00N 50°22' E 000°12'612.7
2017-Oct-08 01:30N 50°21' E 000°02'713.0
2017-Oct-08 01:00N 50°22' W 000°08'713.2
2017-Oct-08 00:31N 50°24' W 000°18'714.0
2017-Oct-08 00:00N 50°27' W 000°27'714.5
2017-Oct-07 23:30N 50°31' W 000°37'714.7
2017-Oct-07 23:00N 50°34' W 000°47'713.4
2017-Oct-07 22:31N 50°39' W 000°55'510.4
2017-Oct-07 22:01N 50°43' W 000°60'917.4
2017-Oct-07 21:31N 50°46' W 001°13'510.0
2017-Oct-07 21:00N 50°49' W 001°18'5 9.4
2017-Oct-07 20:30N 50°53' W 001°24'1 2.8
2017-Oct-07 20:00N 50°54' W 001°25'1 2.2
2017-Oct-07 19:30N 50°54' W 001°27'1 1.7
2017-Oct-07 19:00N 50°55' W 001°28'0 0.0
2017-Oct-07 18:28N 50°55' W 001°28'0 0.0
2017-Oct-07 17:58N 50°55' W 001°28'0 0.0
2017-Oct-07 17:28N 50°55' W 001°28'0 0.0
2017-Oct-07 16:58N 50°55' W 001°28'0 0.0
2017-Oct-07 16:28N 50°55' W 001°28'0 0.0
2017-Oct-07 15:58N 50°55' W 001°28'0 0.0
2017-Oct-07 15:28N 50°55' W 001°28'0 0.0
2017-Oct-07 14:58N 50°55' W 001°28'0 0.0
2017-Oct-07 14:28N 50°55' W 001°28'0 0.0
2017-Oct-07 13:58N 50°55' W 001°28'0 0.0
2017-Oct-07 13:28N 50°55' W 001°28'0 0.0
2017-Oct-07 12:58N 50°55' W 001°28'0 0.0
2017-Oct-07 12:28N 50°55' W 001°28'0 0.0
2017-Oct-07 11:55N 50°55' W 001°28'0 0.0
2017-Oct-07 11:28N 50°55' W 001°28'0 0.0
2017-Oct-07 10:58N 50°55' W 001°28'0 0.0
2017-Oct-07 10:28N 50°55' W 001°28'0 0.0
2017-Oct-07 09:58N 50°55' W 001°28'0 0.0
2017-Oct-07 09:28N 50°55' W 001°28'0 0.0
2017-Oct-07 08:58N 50°55' W 001°28'0 0.0
2017-Oct-07 08:28N 50°55' W 001°28'0 0.0
2017-Oct-07 07:58N 50°55' W 001°28'0 0.0
2017-Oct-07 07:28N 50°55' W 001°28'0 0.0
2017-Oct-07 06:58N 50°55' W 001°28'0 0.0
2017-Oct-07 06:28N 50°55' W 001°28'0 0.0
2017-Oct-07 05:58N 50°55' W 001°28'0 0.0
2017-Oct-07 05:28N 50°55' W 001°28'1 1.6
2017-Oct-07 05:00N 50°54' W 001°27'3 5.3
2017-Oct-07 04:30N 50°53' W 001°23'5 9.3
2017-Oct-07 04:01N 50°49' W 001°18'4 7.4
2017-Oct-07 03:31N 50°46' W 001°15'815.2
2017-Oct-07 03:01N 50°44' W 001°04'613.0
2017-Oct-07 02:31N 50°39' W 000°57'4 8.6
2017-Oct-07 02:00N 50°35' W 000°59'510.4
2017-Oct-07 01:30N 50°31' W 001°05'3 6.8
2017-Oct-07 01:00N 50°29' W 001°09'3 6.4
2017-Oct-07 00:30N 50°27' W 001°13'1 2.0
2017-Oct-07 00:00N 50°26' W 001°12'1 1.9
2017-Oct-06 23:30N 50°25' W 001°11'4 8.0
2017-Oct-06 23:00N 50°22' W 001°15'5 8.8
2017-Oct-06 22:24N 50°18' W 001°20'4 9.2
2017-Oct-06 22:00N 50°15' W 001°23'5812.4
2017-Oct-06 17:18N 49°51' W 002°46'613.2
2017-Oct-06 16:51N 49°49' W 002°55'713.0
2017-Oct-06 16:19N 49°49' W 003°06'412.7
2017-Oct-06 16:00N 49°48' W 003°12'612.4
2017-Oct-06 15:30N 49°48' W 003°22'  

Dump ship's entire track history